Flight Track Log - Related Links

Times and Time Zones

All times are in EDT time to prevent confusion due to time zone crossing. See the AWE1253 flight status page for this flight to view local times or setup timezone preferences in your user account.

Time Position Orientation Groundspeed Altitude Reporting Facility
EDT Latitude Longitude Course Direction KTS MPH feet Rate Location/Type
Sun 08:53:40 PM 39.8833 -75.2167 233° Southwest 161 185 1,000  Level Philadelphia TRACON
Sun 08:54:10 PM 39.8833 -75.1833 90° East 189 217 1,900 2,533 Climbing Philadelphia TRACON
Sun 08:55:10 PM 39.9333 -75.1500 27° Northeast 239 275 4,800 2,789 Climbing Philadelphia TRACON
Sun 08:56:00 PM 39.8334 -75.6885 270° West  Level FlightAware Approximate
Sun 08:56:04 PM 39.9500 -75.2167 288° West 266 306 7,200  Level Philadelphia TRACON
Sun 08:57:00 PM 39.8050 -75.8306 232° Southwest  Level FlightAware Approximate
Sun 08:58:00 PM 39.7317 -75.9522 226° Southwest  Level FlightAware Approximate
Sun 08:58:06 PM 39.9131 -75.4286 257° West 312 359 10,100  Level New York Center
Sun 08:59:00 PM 39.6554 -76.0698 233° Southwest  Level FlightAware Approximate
Sun 08:59:07 PM 39.8878 -75.5406 254° West 324 373 10,100  Level New York Center
Sun 09:00:06 PM 39.8669 -75.6419 255° West 329 379 10,200 1,500 Climbing New York Center
Sun 09:01:07 PM 39.8125 -75.7517 237° Southwest 329 379 13,100 2,500 Climbing New York Center
Sun 09:02:06 PM 39.7625 -75.8428 234° Southwest 342 394 15,200 2,350 Climbing New York Center
Sun 09:03:07 PM 39.6992 -75.9594 235° Southwest 355 409 17,800 1,983 Climbing New York Center
Sun 09:04:07 PM 39.6467 -76.0581 235° Southwest 365 420 19,200 1,621 Climbing New York Center
Sun 09:06:01 PM 39.5219 -76.2883 235° Southwest 408 470 22,500 1,773 Climbing Washington Center
Sun 09:07:03 PM 39.4483 -76.4086 232° Southwest 435 501 24,400 2,098 Climbing Washington Center
Sun 09:08:04 PM 39.3639 -76.5392 230° Southwest 447 514 26,800 2,186 Climbing Washington Center
Sun 09:09:01 PM 39.2900 -76.6561 231° Southwest 441 507 28,700 1,881 Climbing Washington Center
Sun 09:10:02 PM 39.2181 -76.7703 231° Southwest 430 495 30,500 1,672 Climbing Washington Center
Sun 09:11:03 PM 39.1483 -76.8817 231° Southwest 419 482 32,100 800 Climbing Washington Center
Sun 09:12:02 PM 39.0742 -76.9925 229° Southwest 419 482 32,100 -50 Level Washington Center
Sun 09:13:04 PM 38.9833 -77.0897 220° Southwest 419 482 32,000 -50 Descending Washington Center
Sun 09:14:01 PM 38.8925 -77.1811 218° Southwest 419 482 32,000  Level Washington Center
Sun 09:15:01 PM 38.7994 -77.2778 219° Southwest 424 488 32,000  Level Washington Center
Sun 09:16:01 PM 38.7083 -77.3714 219° Southwest 429 494 32,000 50 Level Washington Center
Sun 09:17:01 PM 38.6153 -77.4675 219° Southwest 429 494 32,100  Climbing Washington Center
Sun 09:18:03 PM 38.5325 -77.5503 218° Southwest 429 494 32,000 -50 Descending Washington Center
Sun 09:19:01 PM 38.4392 -77.6461 219° Southwest 429 494 32,000  Level Washington Center
Sun 09:20:03 PM 38.3481 -77.7389 219° Southwest 429 494 32,000  Level Washington Center
Sun 09:21:02 PM 38.2567 -77.8339 219° Southwest 429 494 32,000  Level Washington Center
Sun 09:22:01 PM 38.1631 -77.9289 219° Southwest 429 494 32,000  Level Washington Center
Sun 09:23:02 PM 38.0694 -78.0211 218° Southwest 429 494 32,000  Level Washington Center
Sun 09:24:03 PM 37.9781 -78.1075 217° Southwest 421 484 32,000  Level Washington Center
Sun 09:25:03 PM 37.8906 -78.1994 220° Southwest 421 484 32,000  Level Washington Center
Sun 09:26:01 PM 37.8008 -78.2936 220° Southwest 421 484 32,000  Level Washington Center
Sun 09:27:01 PM 37.6964 -78.3922 217° Southwest 427 491 32,000  Level Washington Center
Sun 09:28:02 PM 37.6044 -78.4806 217° Southwest 427 491 32,000  Level Washington Center
Sun 09:29:01 PM 37.5128 -78.5714 218° Southwest 427 491 32,000  Level Washington Center
Sun 09:30:02 PM 37.4186 -78.6617 217° Southwest 427 491 32,000  Level Washington Center
Sun 09:31:03 PM 37.3286 -78.7522 219° Southwest 427 491 32,000  Level Washington Center
Sun 09:32:03 PM 37.2453 -78.8297 217° Southwest 427 491 32,000  Level Washington Center
Sun 09:33:01 PM 37.1553 -78.9169 218° Southwest 427 491 32,000  Level Washington Center
Sun 09:34:01 PM 37.0650 -79.0069 219° Southwest 427 491 32,000  Level Washington Center
Sun 09:35:02 PM 36.9769 -79.0939 218° Southwest 427 491 32,000  Level Washington Center
Sun 09:36:02 PM 36.8869 -79.1781 217° Southwest 427 491 32,000  Level Washington Center
Sun 09:37:01 PM 36.7881 -79.2722 217° Southwest 427 491 32,000  Level Washington Center
Sun 09:38:03 PM 36.7000 -79.3561 217° Southwest 417 480 32,000  Level Washington Center
Sun 09:39:01 PM 36.6117 -79.4397 217° Southwest 417 480 32,000  Level Washington Center
Sun 09:40:57 PM 36.4411 -79.6000 217° Southwest 393 452 32,000  Level Atlanta Center
Sun 09:41:57 PM 36.3542 -79.6819 217° Southwest 393 452 32,000  Level Atlanta Center
Sun 09:42:57 PM 36.2675 -79.7639 217° Southwest 398 458 32,000 50 Level Atlanta Center
Sun 09:43:57 PM 36.1908 -79.8375 218° Southwest 398 458 32,100  Climbing Atlanta Center
Sun 09:44:57 PM 36.1036 -79.9142 215° Southwest 398 458 32,000 -50 Descending Atlanta Center
Sun 09:45:57 PM 36.0164 -79.9878 214° Southwest 398 458 32,000  Level Atlanta Center
Sun 09:46:57 PM 35.9200 -80.0361 202° Southwest 384 442 32,000  Level Atlanta Center
Sun 09:47:57 PM 35.8133 -80.0900 202° Southwest 379 436 32,000  Level Atlanta Center
Sun 09:48:57 PM 35.7189 -80.1356 201° Southwest 374 430 32,000  Level Atlanta Center
Sun 09:49:57 PM 35.6306 -80.1858 205° Southwest 374 430 32,000  Level Atlanta Center
Sun 09:50:57 PM 35.5361 -80.2311 201° Southwest 374 430 32,000  Level Atlanta Center
Sun 09:51:57 PM 35.4394 -80.2789 202° Southwest 369 425 32,000  Level Atlanta Center
Sun 09:52:57 PM 35.3428 -80.3264 202° Southwest 369 425 32,000  Level Atlanta Center
Sun 09:53:57 PM 35.2381 -80.3822 204° Southwest 375 432 32,000  Level Atlanta Center
Sun 09:54:57 PM 35.1414 -80.4294 202° Southwest 370 426 32,000  Level Atlanta Center
Sun 09:57:03 PM 34.9511 -80.5244 202° Southwest 371 427 32,000  Level Jacksonville Center
Sun 09:58:03 PM 34.8603 -80.5675 201° Southwest 365 420 32,000  Level Jacksonville Center
Sun 09:59:03 PM 34.7672 -80.6131 202° Southwest 365 420 32,000  Level Jacksonville Center
Sun 10:00:03 PM 34.6742 -80.6608 203° Southwest 365 420 32,000  Level Jacksonville Center
Sun 10:01:03 PM 34.5603 -80.7169 202° Southwest 390 449 32,000  Level Jacksonville Center
Sun 10:02:03 PM 34.4675 -80.7669 204° Southwest 385 443 32,000 50 Level Jacksonville Center
Sun 10:03:03 PM 34.3742 -80.8144 203° Southwest 377 434 32,100  Climbing Jacksonville Center
Sun 10:04:03 PM 34.2956 -80.8442 197° South 370 426 32,000 -50 Descending Jacksonville Center
Sun 10:05:03 PM 34.1983 -80.8942 203° Southwest 370 426 32,000  Level Jacksonville Center
Sun 10:06:03 PM 34.0989 -80.9414 201° Southwest 370 426 32,000  Level Jacksonville Center
Sun 10:07:03 PM 34.0056 -80.9861 202° Southwest 370 426 32,000  Level Jacksonville Center
Sun 10:08:03 PM 33.8978 -81.0361 201° Southwest 375 432 32,000  Level Jacksonville Center
Sun 10:09:03 PM 33.8150 -81.0753 201° Southwest 375 432 32,000  Level Jacksonville Center
Sun 10:10:03 PM 33.7197 -81.1247 203° Southwest 375 432 32,000  Level Jacksonville Center
Sun 10:11:03 PM 33.6264 -81.1714 203° Southwest 375 432 32,000  Level Jacksonville Center
Sun 10:12:03 PM 33.5331 -81.2181 203° Southwest 375 432 32,000  Level Jacksonville Center
Sun 10:13:03 PM 33.4397 -81.2622 202° Southwest 375 432 32,000  Level Jacksonville Center
Sun 10:14:03 PM 33.3464 -81.3086 203° Southwest 375 432 32,000  Level Jacksonville Center
Sun 10:15:03 PM 33.2553 -81.3525 202° Southwest 375 432 32,000  Level Jacksonville Center
Sun 10:16:03 PM 33.1619 -81.3989 203° Southwest 370 426 32,000  Level Jacksonville Center
Sun 10:17:03 PM 33.0683 -81.4450 202° Southwest 370 426 32,000  Level Jacksonville Center
Sun 10:18:03 PM 32.9728 -81.4886 201° Southwest 375 432 32,000  Level Jacksonville Center
Sun 10:19:03 PM 32.8794 -81.5347 203° Southwest 370 426 32,000  Level Jacksonville Center
Sun 10:20:03 PM 32.7839 -81.5731 199° South 370 426 32,000 50 Level Jacksonville Center
Sun 10:21:03 PM 32.6756 -81.6017 193° South 364 419 32,100 50 Climbing Jacksonville Center
Sun 10:22:03 PM 32.5861 -81.6228 191° South 364 419 32,100  Level Jacksonville Center
Sun 10:23:03 PM 32.4778 -81.6489 191° South 369 425 32,100  Level Jacksonville Center
Sun 10:24:03 PM 32.3861 -81.6722 192° South 374 430 32,100 -50 Level Jacksonville Center
Sun 10:25:03 PM 32.2778 -81.7008 193° South 374 430 32,000  Descending Jacksonville Center
Sun 10:26:03 PM 32.1778 -81.7242 191° South 374 430 32,100 50 Climbing Jacksonville Center
Sun 10:27:03 PM 32.0861 -81.7475 192° South 374 430 32,100 -50 Level Jacksonville Center
Sun 10:28:03 PM 31.9778 -81.7758 193° South 374 430 32,000  Descending Jacksonville Center
Sun 10:29:03 PM 31.8861 -81.7989 192° South 376 433 32,100 50 Climbing Jacksonville Center
Sun 10:30:03 PM 31.7758 -81.8247 191° South 368 423 32,100  Level Jacksonville Center
Sun 10:31:03 PM 31.6736 -81.8528 193° South 374 430 32,100  Level Jacksonville Center
Sun 10:32:03 PM 31.5819 -81.8731 191° South 374 430 32,100  Level Jacksonville Center
Sun 10:33:03 PM 31.4675 -81.9036 193° South 374 430 32,100  Level Jacksonville Center
Sun 10:34:03 PM 31.3653 -81.9267 191° South 381 438 32,100 -50 Level Jacksonville Center
Sun 10:35:03 PM 31.2589 -81.9569 194° South 386 444 32,000 -50 Descending Jacksonville Center
Sun 10:36:03 PM 31.1569 -81.9797 191° South 386 444 32,000  Level Jacksonville Center
Sun 10:37:03 PM 31.0506 -82.0075 193° South 391 450 32,000  Level Jacksonville Center
Sun 10:38:03 PM 30.9442 -82.0303 190° South 391 450 32,000  Level Jacksonville Center
Sun 10:39:03 PM 30.8400 -82.0578 193° South 391 450 32,000  Level Jacksonville Center
Sun 10:40:03 PM 30.7442 -82.0803 191° South 391 450 32,000  Level Jacksonville Center
Sun 10:41:03 PM 30.6378 -82.1078 193° South 391 450 32,000  Level Jacksonville Center
Sun 10:42:03 PM 30.5231 -82.1306 190° South 391 450 32,000  Level Jacksonville Center
Sun 10:43:03 PM 30.4169 -82.1578 192° South 391 450 32,000  Level Jacksonville Center
Sun 10:44:03 PM 30.3106 -82.1828 191° South 391 450 32,000  Level Jacksonville Center
Sun 10:45:03 PM 30.2061 -82.2075 192° South 397 457 32,000  Level Jacksonville Center
Sun 10:46:03 PM 30.0978 -82.2347 192° South 397 457 32,000  Level Jacksonville Center
Sun 10:47:03 PM 30.0019 -82.2617 194° South 392 451 32,000  Level Jacksonville Center
Sun 10:48:03 PM 29.8956 -82.2889 193° South 392 451 32,000  Level Jacksonville Center
Sun 10:49:03 PM 29.7872 -82.3133 191° South 397 457 32,000  Level Jacksonville Center
Sun 10:50:03 PM 29.6683 -82.3381 190° South 397 457 32,000 -500 Level Jacksonville Center
Sun 10:51:03 PM 29.5575 -82.3553 188° South 397 457 31,000 -1,350 Descending Jacksonville Center
Sun 10:52:03 PM 29.4428 -82.3417 174° South 397 457 29,300 -2,500 Descending Jacksonville Center
Sun 10:53:03 PM 29.3300 -82.3281 174° South 412 474 26,000 -3,100 Descending Jacksonville Center
Sun 10:54:03 PM 29.2131 -82.3167 175° South 418 481 23,100 -3,100 Descending Jacksonville Center
Sun 10:55:03 PM 29.1044 -82.3008 173° South 418 481 19,800 -2,850 Descending Jacksonville Center
Sun 10:56:03 PM 28.9936 -82.2897 175° South 408 470 17,400 -2,500 Descending Jacksonville Center
Sun 10:57:03 PM 28.8892 -82.2736 172° South 397 457 14,800 -1,737 Descending Jacksonville Center
Sun 10:58:35 PM 28.7333 -82.2667 178° South 365 420 13,000 -781 Descending Tampa TRACON
Sun 10:59:29 PM 28.6500 -82.2500 170° South 350 403 12,900 -895 Descending Tampa TRACON
Sun 11:00:29 PM 28.5500 -82.2500 180° South 317 365 11,300 -1,400 Descending Tampa TRACON
Sun 11:01:29 PM 28.4667 -82.2500 180° South 296 341 10,100 -1,250 Descending Tampa TRACON
Sun 11:02:29 PM 28.4000 -82.2500 180° South 268 308 8,800 -1,579 Descending Tampa TRACON
Sun 11:03:23 PM 28.3333 -82.2667 192° South 258 297 7,100 -1,550 Descending Tampa TRACON
Sun 11:04:29 PM 28.3000 -82.3333 240° Southwest 249 287 5,700 -1,143 Descending Tampa TRACON
Sun 11:05:29 PM 28.2500 -82.4000 230° Southwest 223 257 4,700 -1,000 Descending Tampa TRACON
Sun 11:06:35 PM 28.2167 -82.4500 233° Southwest 222 255 3,600 -850 Descending Tampa TRACON
Sun 11:07:29 PM 28.1833 -82.5000 233° Southwest 193 222 3,000 -611 Descending Tampa TRACON
Sun 11:08:23 PM 28.1333 -82.5167 196° South 189 217 2,500 -526 Descending Tampa TRACON
Sun 11:09:23 PM 28.1000 -82.5333 204° Southwest 177 204 2,000 -667 Descending Tampa TRACON
Sun 11:10:29 PM 28.0500 -82.5333 180° South 146 168 1,100 -762 Descending Tampa TRACON
Sun 11:11:29 PM 28.0000 -82.5333 180° South 141 162 400 -700 Descending Tampa TRACON

Login

Don't have an account? Register now (free) for customized features, flight alerts, and more!